Time,TemperatureF,DewpointF,PressureIn,WindDirection,WindDirectionDegrees,WindSpeedMPH,WindSpeedGustMPH,Humidity,HourlyPrecipIn,Conditions,Clouds,dailyrainin,SoftwareType,DateUTC
2013-04-29 00:01:00,57.8,29.4,29.99,SSW,203,0.4,2.0,34,0.00,,,0.00,WUHU216HW,2013-04-29 06:01:00,
2013-04-29 00:06:00,58.0,29.5,29.99,South,180,2.5,2.5,34,0.00,,,0.00,WUHU216HW,2013-04-29 06:06:00,
2013-04-29 00:11:00,58.0,30.2,29.99,SSW,203,2.5,5.1,35,0.00,,,0.00,WUHU216HW,2013-04-29 06:11:00,
2013-04-29 00:16:00,58.1,30.4,29.99,SSW,203,2.2,5.4,35,0.00,,,0.00,WUHU216HW,2013-04-29 06:16:00,
2013-04-29 00:21:00,58.0,31.0,29.99,SE,135,4.0,5.4,36,0.00,,,0.00,WUHU216HW,2013-04-29 06:21:00,
2013-04-29 00:26:00,57.6,30.6,29.99,SW,225,1.1,4.0,36,0.00,,,0.00,WUHU216HW,2013-04-29 06:26:00,
2013-04-29 00:31:00,57.4,31.1,29.99,SW,225,0.4,3.8,37,0.00,,,0.00,WUHU216HW,2013-04-29 06:31:00,
2013-04-29 00:36:00,57.2,31.1,29.99,West,270,2.2,3.8,37,0.00,,,0.00,WUHU216HW,2013-04-29 06:36:00,
2013-04-29 00:41:00,56.9,31.4,30.00,SSW,203,4.0,4.0,38,0.00,,,0.00,WUHU216HW,2013-04-29 06:41:00,
2013-04-29 00:46:00,56.7,31.2,30.00,NNE,23,0.4,4.0,38,0.00,,,0.00,WUHU216HW,2013-04-29 06:46:00,
2013-04-29 00:51:00,56.5,31.1,30.00,South,180,1.8,4.3,38,0.00,,,0.00,WUHU216HW,2013-04-29 06:51:00,
2013-04-29 00:56:00,56.3,31.6,30.00,WSW,248,1.1,4.3,39,0.00,,,0.00,WUHU216HW,2013-04-29 06:56:00,
2013-04-29 01:01:00,56.2,31.4,30.00,WSW,248,0.2,1.8,39,0.00,,,0.00,WUHU216HW,2013-04-29 07:01:00,
2013-04-29 01:06:00,56.0,31.3,30.00,WSW,248,0.0,1.1,39,0.00,,,0.00,WUHU216HW,2013-04-29 07:06:00,
2013-04-29 01:11:00,55.8,31.2,30.00,West,270,1.3,1.3,39,0.00,,,0.00,WUHU216HW,2013-04-29 07:11:00,
2013-04-29 01:16:00,55.6,31.7,30.00,West,270,0.0,1.3,40,0.00,,,0.00,WUHU216HW,2013-04-29 07:16:00,
2013-04-29 01:21:00,55.4,31.5,30.00,WSW,248,0.0,0.9,40,0.00,,,0.00,WUHU216HW,2013-04-29 07:21:00,
2013-04-29 01:26:00,55.1,31.1,29.99,WSW,248,0.0,0.9,40,0.00,,,0.00,WUHU216HW,2013-04-29 07:26:00,
2013-04-29 01:31:00,54.7,30.9,29.99,SW,225,0.0,0.9,40,0.00,,,0.00,WUHU216HW,2013-04-29 07:31:00,
2013-04-29 01:36:00,54.4,31.1,29.99,SW,225,2.7,2.7,41,0.00,,,0.00,WUHU216HW,2013-04-29 07:36:00,
2013-04-29 01:41:00,54.4,32.2,29.99,WNW,293,1.1,2.7,43,0.00,,,0.00,WUHU216HW,2013-04-29 07:41:00,
2013-04-29 01:46:00,54.4,31.7,29.99,WNW,293,0.0,2.0,42,0.00,,,0.00,WUHU216HW,2013-04-29 07:46:00,
2013-04-29 01:51:00,54.4,31.7,29.99,WSW,248,2.5,2.5,42,0.00,,,0.00,WUHU216HW,2013-04-29 07:51:00,
2013-04-29 01:56:00,54.2,31.5,29.98,SE,135,1.8,2.5,42,0.00,,,0.00,WUHU216HW,2013-04-29 07:56:00,
2013-04-29 02:01:00,54.0,31.3,29.98,WSW,248,0.4,2.5,42,0.00,,,0.00,WUHU216HW,2013-04-29 08:01:00,
2013-04-29 02:06:00,53.6,31.6,29.98,WNW,293,0.4,1.8,43,0.00,,,0.00,WUHU216HW,2013-04-29 08:06:00,
2013-04-29 02:11:00,53.3,31.2,29.98,South,180,0.7,1.3,43,0.00,,,0.00,WUHU216HW,2013-04-29 08:11:00,
2013-04-29 02:16:00,52.7,30.8,29.98,WSW,248,0.0,1.1,43,0.00,,,0.00,WUHU216HW,2013-04-29 08:16:00,
2013-04-29 02:21:00,52.6,30.6,29.98,SSW,203,0.0,1.1,43,0.00,,,0.00,WUHU216HW,2013-04-29 08:21:00,
2013-04-29 02:26:00,52.2,30.2,29.98,West,270,0.4,1.3,43,0.00,,,0.00,WUHU216HW,2013-04-29 08:26:00,
2013-04-29 02:31:00,52.2,30.2,29.98,SW,225,1.3,1.8,43,0.00,,,0.00,WUHU216HW,2013-04-29 08:31:00,
2013-04-29 02:36:00,52.2,30.2,29.97,SSW,203,1.6,2.0,43,0.00,,,0.00,WUHU216HW,2013-04-29 08:36:00,
2013-04-29 02:41:00,52.2,30.8,29.97,SSW,203,1.8,2.5,44,0.00,,,0.00,WUHU216HW,2013-04-29 08:41:00,
2013-04-29 02:46:00,52.4,31.0,29.97,SE,135,2.5,2.5,44,0.00,,,0.00,WUHU216HW,2013-04-29 08:46:00,
2013-04-29 02:51:00,52.4,31.0,29.97,SW,225,1.1,2.5,44,0.00,,,0.00,WUHU216HW,2013-04-29 08:51:00,
2013-04-29 02:56:00,52.4,30.4,29.97,SSW,203,0.0,1.8,43,0.00,,,0.00,WUHU216HW,2013-04-29 08:56:00,
2013-04-29 03:01:00,52.2,30.2,29.97,WSW,248,0.0,1.3,43,0.00,,,0.00,WUHU216HW,2013-04-29 09:01:00,
2013-04-29 03:06:00,51.7,29.8,29.97,SSE,158,0.7,1.3,43,0.00,,,0.00,WUHU216HW,2013-04-29 09:06:00,
2013-04-29 03:11:00,51.3,30.0,29.97,WSW,248,1.8,1.8,44,0.00,,,0.00,WUHU216HW,2013-04-29 09:11:00,
2013-04-29 03:16:00,50.8,30.1,29.96,WSW,248,0.0,2.0,45,0.00,,,0.00,WUHU216HW,2013-04-29 09:16:00,
2013-04-29 03:21:00,50.2,29.6,29.96,WSW,248,1.1,2.0,45,0.00,,,0.00,WUHU216HW,2013-04-29 09:21:00,
2013-04-29 03:26:00,49.9,29.8,29.96,SSE,158,2.0,2.0,46,0.00,,,0.00,WUHU216HW,2013-04-29 09:26:00,
2013-04-29 03:31:00,49.5,30.6,29.96,NW,315,1.6,2.0,48,0.00,,,0.00,WUHU216HW,2013-04-29 09:31:00,
2013-04-29 03:36:00,49.3,30.4,29.96,West,270,0.0,1.6,48,0.00,,,0.00,WUHU216HW,2013-04-29 09:36:00,
2013-04-29 03:41:00,49.0,30.1,29.96,SSE,158,0.0,1.8,48,0.00,,,0.00,WUHU216HW,2013-04-29 09:41:00,
2013-04-29 03:46:00,48.8,29.4,29.95,SSE,158,1.8,1.8,47,0.00,,,0.00,WUHU216HW,2013-04-29 09:46:00,
2013-04-29 03:51:00,48.6,30.3,29.96,West,270,2.5,2.5,49,0.00,,,0.00,WUHU216HW,2013-04-29 09:51:00,
2013-04-29 03:56:00,48.6,30.8,29.95,WSW,248,1.8,2.5,50,0.00,,,0.00,WUHU216HW,2013-04-29 09:56:00,
2013-04-29 04:01:00,48.6,30.8,29.95,WSW,248,0.4,2.5,50,0.00,,,0.00,WUHU216HW,2013-04-29 10:01:00,
2013-04-29 04:06:00,48.4,30.6,29.95,SSE,158,2.2,2.5,50,0.00,,,0.00,WUHU216HW,2013-04-29 10:06:00,
2013-04-29 04:11:00,48.1,30.2,29.95,WSW,248,0.7,2.2,50,0.00,,,0.00,WUHU216HW,2013-04-29 10:11:00,
2013-04-29 04:16:00,47.9,30.1,29.95,WSW,248,1.1,1.3,50,0.00,,,0.00,WUHU216HW,2013-04-29 10:16:00,
2013-04-29 04:21:00,47.7,30.0,29.95,WSW,248,0.7,1.1,50,0.00,,,0.00,WUHU216HW,2013-04-29 10:21:00,
2013-04-29 04:26:00,47.5,29.8,29.95,WSW,248,0.9,1.1,50,0.00,,,0.00,WUHU216HW,2013-04-29 10:26:00,
2013-04-29 04:31:00,47.3,30.1,29.94,WSW,248,1.1,1.3,51,0.00,,,0.00,WUHU216HW,2013-04-29 10:31:00,
2013-04-29 04:36:00,47.2,29.9,29.94,South,180,1.8,1.8,51,0.00,,,0.00,WUHU216HW,2013-04-29 10:36:00,
2013-04-29 04:41:00,47.0,30.3,29.94,SW,225,0.2,3.1,52,0.00,,,0.00,WUHU216HW,2013-04-29 10:41:00,
2013-04-29 04:46:00,46.8,30.1,29.94,SW,225,1.1,3.1,52,0.00,,,0.00,WUHU216HW,2013-04-29 10:46:00,
2013-04-29 04:51:00,46.6,29.9,29.94,SSE,158,1.8,1.8,52,0.00,,,0.00,WUHU216HW,2013-04-29 10:51:00,
2013-04-29 04:56:00,46.6,29.9,29.93,SSE,158,0.0,1.8,52,0.00,,,0.00,WUHU216HW,2013-04-29 10:56:00,
2013-04-29 05:01:00,46.4,31.5,29.94,WSW,248,1.1,4.3,56,0.00,,,0.00,WUHU216HW,2013-04-29 11:01:00,
2013-04-29 05:06:00,46.4,30.6,29.93,SE,135,0.0,4.3,54,0.00,,,0.00,WUHU216HW,2013-04-29 11:06:00,
2013-04-29 05:11:00,46.4,32.0,29.93,SW,225,2.5,3.8,57,0.00,,,0.00,WUHU216HW,2013-04-29 11:11:00,
2013-04-29 05:16:00,46.3,30.9,29.93,WSW,248,0.0,3.8,55,0.00,,,0.00,WUHU216HW,2013-04-29 11:16:00,
2013-04-29 05:21:00,46.3,30.9,29.92,SW,225,1.6,2.2,55,0.00,,,0.00,WUHU216HW,2013-04-29 11:21:00,
2013-04-29 05:26:00,46.1,31.1,29.93,SW,225,1.1,3.8,56,0.00,,,0.00,WUHU216HW,2013-04-29 11:26:00,
2013-04-29 05:31:00,46.1,31.1,29.92,West,270,0.9,3.8,56,0.00,,,0.00,WUHU216HW,2013-04-29 11:31:00,
2013-04-29 05:36:00,45.7,31.3,29.93,SW,225,1.1,1.8,57,0.00,,,0.00,WUHU216HW,2013-04-29 11:36:00,
2013-04-29 05:41:00,45.7,30.9,29.92,WSW,248,0.0,1.8,56,0.00,,,0.00,WUHU216HW,2013-04-29 11:41:00,
2013-04-29 05:46:00,45.4,30.5,29.92,West,270,2.9,2.9,56,0.00,,,0.00,WUHU216HW,2013-04-29 11:46:00,
2013-04-29 05:51:00,45.0,30.3,29.92,SSE,158,1.1,2.9,56,0.00,,,0.00,WUHU216HW,2013-04-29 11:51:00,
2013-04-29 05:56:00,44.6,29.9,29.92,WSW,248,1.3,1.8,56,0.00,,,0.00,WUHU216HW,2013-04-29 11:56:00,
2013-04-29 06:01:00,44.5,29.7,29.92,SSW,203,1.1,1.6,56,0.00,,,0.00,WUHU216HW,2013-04-29 12:01:00,
2013-04-29 06:06:00,44.3,29.5,29.91,WSW,248,1.1,1.1,56,0.00,,,0.00,WUHU216HW,2013-04-29 12:06:00,
2013-04-29 06:11:00,44.3,30.0,29.92,SSE,158,1.8,1.8,57,0.00,,,0.00,WUHU216HW,2013-04-29 12:11:00,
2013-04-29 06:16:00,44.1,31.1,29.92,West,270,2.0,2.0,60,0.00,,,0.00,WUHU216HW,2013-04-29 12:16:00,
2013-04-29 06:21:00,44.3,30.9,29.91,SE,135,1.1,2.0,59,0.00,,,0.00,WUHU216HW,2013-04-29 12:21:00,
2013-04-29 06:26:00,44.3,30.4,29.91,SW,225,0.7,2.0,58,0.00,,,0.00,WUHU216HW,2013-04-29 12:26:00,
2013-04-29 06:31:00,44.5,30.6,29.91,SSW,203,0.0,1.3,58,0.00,,,0.00,WUHU216HW,2013-04-29 12:31:00,
2013-04-29 06:36:00,44.8,31.4,29.91,SSE,158,1.6,1.6,59,0.00,,,0.00,WUHU216HW,2013-04-29 12:36:00,
2013-04-29 06:41:00,45.0,32.1,29.91,North,0,0.4,1.6,60,0.00,,,0.00,WUHU216HW,2013-04-29 12:41:00,
2013-04-29 06:46:00,45.4,31.9,29.91,WNW,293,0.2,1.3,59,0.00,,,0.00,WUHU216HW,2013-04-29 12:46:00,
2013-04-29 06:51:00,45.7,32.2,29.91,SSE,158,1.1,2.2,59,0.00,,,0.00,WUHU216HW,2013-04-29 12:51:00,
2013-04-29 06:56:00,46.1,32.5,29.90,SE,135,0.4,2.2,59,0.00,,,0.00,WUHU216HW,2013-04-29 12:56:00,
2013-04-29 07:01:00,46.6,33.0,29.90,North,0,0.7,1.1,59,0.00,,,0.00,WUHU216HW,2013-04-29 13:01:00,
2013-04-29 07:06:00,47.0,33.4,29.90,SSE,158,0.4,2.0,59,0.00,,,0.00,WUHU216HW,2013-04-29 13:06:00,
2013-04-29 07:11:00,47.3,34.2,29.90,ENE,68,0.9,2.0,60,0.00,,,0.00,WUHU216HW,2013-04-29 13:11:00,
2013-04-29 07:16:00,47.7,34.1,29.90,North,0,0.9,1.8,59,0.00,,,0.00,WUHU216HW,2013-04-29 13:16:00,
2013-04-29 07:21:00,48.2,34.7,29.89,SSE,158,1.3,1.8,59,0.00,,,0.00,WUHU216HW,2013-04-29 13:21:00,
2013-04-29 07:26:00,49.0,35.3,29.89,SSE,158,0.7,2.2,59,0.00,,,0.00,WUHU216HW,2013-04-29 13:26:00,
2013-04-29 07:31:00,50.0,36.3,29.89,SE,135,0.2,2.2,59,0.00,,,0.00,WUHU216HW,2013-04-29 13:31:00,
2013-04-29 07:36:00,51.1,36.4,29.89,NE,45,1.3,1.3,57,0.00,,,0.00,WUHU216HW,2013-04-29 13:36:00,
2013-04-29 07:41:00,53.1,37.3,29.89,North,0,5.6,5.6,55,0.00,,,0.00,WUHU216HW,2013-04-29 13:41:00,
2013-04-29 07:46:00,53.3,36.1,29.89,North,0,1.1,5.6,52,0.00,,,0.00,WUHU216HW,2013-04-29 13:46:00,
2013-04-29 07:51:00,53.1,35.9,29.89,NW,315,0.2,4.7,52,0.00,,,0.00,WUHU216HW,2013-04-29 13:51:00,
2013-04-29 07:56:00,53.6,36.4,29.89,ENE,68,0.2,1.1,52,0.00,,,0.00,WUHU216HW,2013-04-29 13:56:00,
2013-04-29 08:02:00,54.7,36.9,29.88,North,0,0.0,1.1,51,0.00,,,0.00,WUHU216HW,2013-04-29 14:02:00,
2013-04-29 08:07:00,56.0,37.6,29.88,NNE,23,0.7,0.9,50,0.00,,,0.00,WUHU216HW,2013-04-29 14:07:00,
2013-04-29 08:12:00,57.1,38.2,29.88,East,90,0.7,1.8,49,0.00,,,0.00,WUHU216HW,2013-04-29 14:12:00,
2013-04-29 08:17:00,58.3,37.5,29.88,ESE,113,0.4,1.8,46,0.00,,,0.00,WUHU216HW,2013-04-29 14:17:00,
2013-04-29 08:22:00,59.6,37.0,29.88,ESE,113,1.3,1.3,43,0.00,,,0.00,WUHU216HW,2013-04-29 14:22:00,
2013-04-29 08:26:00,60.1,36.9,29.87,NE,45,2.5,3.4,42,0.00,,,0.00,WUHU216HW,2013-04-29 14:26:00,
2013-04-29 08:32:00,59.9,36.7,29.87,NNE,23,2.0,3.4,42,0.00,,,0.00,WUHU216HW,2013-04-29 14:32:00,
2013-04-29 08:36:00,60.1,36.3,29.87,NE,45,2.5,3.4,41,0.00,,,0.00,WUHU216HW,2013-04-29 14:36:00,
2013-04-29 08:42:00,60.5,37.2,29.87,NE,45,2.9,4.7,42,0.00,,,0.00,WUHU216HW,2013-04-29 14:42:00,
2013-04-29 08:47:00,60.8,36.9,29.87,NNE,23,4.9,4.9,41,0.00,,,0.00,WUHU216HW,2013-04-29 14:47:00,
2013-04-29 08:52:00,60.8,35.6,29.87,ENE,68,3.1,5.4,39,0.00,,,0.00,WUHU216HW,2013-04-29 14:52:00,
2013-04-29 08:57:00,61.9,37.4,29.86,SSW,203,0.7,5.4,40,0.00,,,0.00,WUHU216HW,2013-04-29 14:57:00,
2013-04-29 09:02:00,63.7,37.5,29.87,ESE,113,1.3,4.7,38,0.00,,,0.00,WUHU216HW,2013-04-29 15:02:00,
2013-04-29 09:07:00,64.1,36.4,29.87,North,0,4.3,4.3,36,0.00,,,0.00,WUHU216HW,2013-04-29 15:07:00,
2013-04-29 09:12:00,64.4,37.4,29.86,SE,135,0.4,4.3,37,0.00,,,0.00,WUHU216HW,2013-04-29 15:12:00,
2013-04-29 09:17:00,65.5,36.3,29.86,East,90,5.4,5.4,34,0.00,,,0.00,WUHU216HW,2013-04-29 15:17:00,
2013-04-29 09:22:00,66.2,36.2,29.85,ESE,113,4.7,5.4,33,0.00,,,0.00,WUHU216HW,2013-04-29 15:22:00,
2013-04-29 09:27:00,68.2,38.6,29.85,SSE,158,0.4,4.7,34,0.00,,,0.00,WUHU216HW,2013-04-29 15:27:00,
2013-04-29 09:32:00,70.6,38.4,29.86,SSW,203,1.8,5.4,31,0.00,,,0.00,WUHU216HW,2013-04-29 15:32:00,
2013-04-29 09:37:00,70.7,37.9,29.86,SSW,203,3.8,5.4,30,0.00,,,0.00,WUHU216HW,2013-04-29 15:37:00,
2013-04-29 09:42:00,71.6,37.7,29.86,South,180,0.7,4.5,29,0.00,,,0.00,WUHU216HW,2013-04-29 15:42:00,
2013-04-29 09:47:00,71.6,36.6,29.85,ESE,113,8.1,8.1,28,0.00,,,0.00,WUHU216HW,2013-04-29 15:47:00,
2013-04-29 09:52:00,72.2,34.0,29.85,SSE,158,3.4,8.1,25,0.00,,,0.00,WUHU216HW,2013-04-29 15:52:00,
2013-04-29 09:57:00,73.1,35.8,29.86,SE,135,3.1,4.0,26,0.00,,,0.00,WUHU216HW,2013-04-29 15:57:00,
2013-04-29 10:02:00,74.0,33.6,29.85,SSE,158,1.1,4.5,23,0.00,,,0.00,WUHU216HW,2013-04-29 16:02:00,
2013-04-29 10:07:00,73.8,31.3,29.86,WNW,293,0.9,5.8,21,0.00,,,0.00,WUHU216HW,2013-04-29 16:07:00,
2013-04-29 10:12:00,73.3,28.3,29.85,NNW,338,2.5,5.8,19,0.00,,,0.00,WUHU216HW,2013-04-29 16:12:00,
2013-04-29 10:17:00,72.5,31.3,29.85,WNW,293,3.4,5.4,22,0.00,,,0.00,WUHU216HW,2013-04-29 16:17:00,
2013-04-29 10:22:00,71.8,27.0,29.85,SSW,203,1.8,7.6,19,0.00,,,0.00,WUHU216HW,2013-04-29 16:22:00,
2013-04-29 10:27:00,72.2,27.3,29.84,WNW,293,3.4,7.6,19,0.00,,,0.00,WUHU216HW,2013-04-29 16:27:00,
2013-04-29 10:32:00,72.0,29.8,29.85,East,90,2.5,8.1,21,0.00,,,0.00,WUHU216HW,2013-04-29 16:32:00,
2013-04-29 10:37:00,71.5,29.4,29.85,North,0,0.0,8.1,21,0.00,,,0.00,WUHU216HW,2013-04-29 16:37:00,
2013-04-29 10:42:00,71.3,29.2,29.84,SE,135,0.9,4.7,21,0.00,,,0.00,WUHU216HW,2013-04-29 16:42:00,
2013-04-29 10:47:00,71.1,26.4,29.85,ESE,113,0.9,4.3,19,0.00,,,0.00,WUHU216HW,2013-04-29 16:47:00,
2013-04-29 10:52:00,71.6,29.4,29.85,SE,135,3.4,4.3,21,0.00,,,0.00,WUHU216HW,2013-04-29 16:52:00,
2013-04-29 10:57:00,72.0,29.8,29.85,ESE,113,2.2,5.4,21,0.00,,,0.00,WUHU216HW,2013-04-29 16:57:00,
2013-04-29 11:02:00,73.4,28.5,29.85,North,0,2.2,5.4,19,0.00,,,0.00,WUHU216HW,2013-04-29 17:02:00,
2013-04-29 11:07:00,72.9,30.6,29.84,SSE,158,1.8,5.4,21,0.00,,,0.00,WUHU216HW,2013-04-29 17:07:00,
2013-04-29 11:12:00,74.5,32.0,29.85,SE,135,3.4,4.9,21,0.00,,,0.00,WUHU216HW,2013-04-29 17:12:00,
2013-04-29 11:17:00,75.8,28.6,29.84,NNW,338,2.7,4.9,18,0.00,,,0.00,WUHU216HW,2013-04-29 17:17:00,
2013-04-29 11:22:00,75.2,28.2,29.84,North,0,4.3,4.3,18,0.00,,,0.00,WUHU216HW,2013-04-29 17:22:00,
2013-04-29 11:27:00,75.2,28.2,29.84,SW,225,2.5,4.5,18,0.00,,,0.00,WUHU216HW,2013-04-29 17:27:00,
2013-04-29 11:32:00,76.0,27.1,29.84,SE,135,1.8,5.6,17,0.00,,,0.00,WUHU216HW,2013-04-29 17:32:00,
2013-04-29 11:37:00,76.5,29.2,29.84,SSE,158,4.0,5.6,18,0.00,,,0.00,WUHU216HW,2013-04-29 17:37:00,
2013-04-29 11:42:00,77.2,26.5,29.84,NE,45,2.7,4.0,16,0.00,,,0.00,WUHU216HW,2013-04-29 17:42:00,
2013-04-29 11:47:00,77.0,29.6,29.84,SSE,158,4.0,4.0,18,0.00,,,0.00,WUHU216HW,2013-04-29 17:47:00,
2013-04-29 11:52:00,76.7,26.0,29.84,SW,225,2.7,7.2,16,0.00,,,0.00,WUHU216HW,2013-04-29 17:52:00,
2013-04-29 11:57:00,76.0,25.5,29.84,East,90,1.8,7.2,16,0.00,,,0.00,WUHU216HW,2013-04-29 17:57:00,
2013-04-29 12:02:00,76.0,25.5,29.84,NW,315,3.4,6.3,16,0.00,,,0.00,WUHU216HW,2013-04-29 18:02:00,
2013-04-29 12:07:00,76.1,27.3,29.84,ESE,113,1.6,8.5,17,0.00,,,0.00,WUHU216HW,2013-04-29 18:07:00,
2013-04-29 12:12:00,76.1,27.3,29.84,NW,315,2.0,8.5,17,0.00,,,0.00,WUHU216HW,2013-04-29 18:12:00,
2013-04-29 12:17:00,76.1,25.6,29.84,North,0,3.1,7.4,16,0.00,,,0.00,WUHU216HW,2013-04-29 18:17:00,
2013-04-29 12:22:00,76.0,23.8,29.84,SW,225,5.6,7.4,15,0.00,,,0.00,WUHU216HW,2013-04-29 18:22:00,
2013-04-29 12:27:00,76.0,25.5,29.83,WNW,293,2.0,6.0,16,0.00,,,0.00,WUHU216HW,2013-04-29 18:27:00,
2013-04-29 12:32:00,76.0,25.5,29.83,SSE,158,4.5,6.9,16,0.00,,,0.00,WUHU216HW,2013-04-29 18:32:00,
2013-04-29 12:37:00,76.5,25.9,29.83,West,270,2.5,9.2,16,0.00,,,0.00,WUHU216HW,2013-04-29 18:37:00,
2013-04-29 12:42:00,75.8,25.3,29.83,SE,135,3.4,9.2,16,0.00,,,0.00,WUHU216HW,2013-04-29 18:42:00,
2013-04-29 12:47:00,75.8,27.0,29.82,SE,135,3.4,4.0,17,0.00,,,0.00,WUHU216HW,2013-04-29 18:47:00,
2013-04-29 12:52:00,76.9,24.5,29.82,ESE,113,2.5,4.9,15,0.00,,,0.00,WUHU216HW,2013-04-29 18:52:00,
2013-04-29 12:57:00,76.9,24.5,29.82,ESE,113,1.1,4.9,15,0.00,,,0.00,WUHU216HW,2013-04-29 18:57:00,
2013-04-29 13:02:00,77.0,26.3,29.82,SE,135,1.3,6.7,16,0.00,,,0.00,WUHU216HW,2013-04-29 19:02:00,
2013-04-29 13:07:00,77.2,24.8,29.82,ESE,113,2.5,8.1,15,0.00,,,0.00,WUHU216HW,2013-04-29 19:07:00,
2013-04-29 13:12:00,77.0,24.7,29.81,SSW,203,2.2,8.1,15,0.00,,,0.00,WUHU216HW,2013-04-29 19:12:00,
2013-04-29 13:17:00,77.0,21.3,29.81,West,270,7.6,9.8,13,0.00,,,0.00,WUHU216HW,2013-04-29 19:17:00,
2013-04-29 13:22:00,76.5,24.2,29.81,SSE,158,3.1,9.8,15,0.00,,,0.00,WUHU216HW,2013-04-29 19:22:00,
2013-04-29 13:27:00,76.5,22.6,29.81,NW,315,2.7,5.4,14,0.00,,,0.00,WUHU216HW,2013-04-29 19:27:00,
2013-04-29 13:32:00,75.2,19.9,29.81,NNE,23,6.0,7.2,13,0.00,,,0.00,WUHU216HW,2013-04-29 19:32:00,
2013-04-29 13:37:00,74.5,19.4,29.81,NNE,23,3.4,8.9,13,0.00,,,0.00,WUHU216HW,2013-04-29 19:37:00,
2013-04-29 13:42:00,74.2,22.4,29.80,SSE,158,1.8,8.9,15,0.00,,,0.00,WUHU216HW,2013-04-29 19:42:00,
2013-04-29 13:47:00,74.5,22.7,29.80,NW,315,3.6,4.7,15,0.00,,,0.00,WUHU216HW,2013-04-29 19:47:00,
2013-04-29 13:52:00,74.5,19.4,29.80,West,270,4.0,6.5,13,0.00,,,0.00,WUHU216HW,2013-04-29 19:52:00,
2013-04-29 13:57:00,74.5,19.4,29.80,WNW,293,2.5,8.1,13,0.00,,,0.00,WUHU216HW,2013-04-29 19:57:00,
2013-04-29 14:02:00,75.1,23.1,29.80,ESE,113,1.8,8.1,15,0.00,,,0.00,WUHU216HW,2013-04-29 20:02:00,
2013-04-29 14:07:00,75.8,20.3,29.80,West,270,1.8,9.2,13,0.00,,,0.00,WUHU216HW,2013-04-29 20:07:00,
2013-04-29 14:12:00,76.1,23.9,29.80,SW,225,3.4,9.2,15,0.00,,,0.00,WUHU216HW,2013-04-29 20:12:00,
2013-04-29 14:17:00,76.5,24.2,29.80,West,270,4.3,6.9,15,0.00,,,0.00,WUHU216HW,2013-04-29 20:17:00,
2013-04-29 14:22:00,76.7,21.1,29.80,NNE,23,4.0,6.9,13,0.00,,,0.00,WUHU216HW,2013-04-29 20:22:00,
2013-04-29 14:27:00,76.1,20.6,29.80,ENE,68,2.2,6.7,13,0.00,,,0.00,WUHU216HW,2013-04-29 20:27:00,
2013-04-29 14:32:00,76.0,23.8,29.80,South,180,1.1,5.6,15,0.00,,,0.00,WUHU216HW,2013-04-29 20:32:00,
2013-04-29 14:37:00,76.1,23.9,29.80,NE,45,2.5,4.5,15,0.00,,,0.00,WUHU216HW,2013-04-29 20:37:00,
2013-04-29 14:42:00,75.8,20.3,29.80,SSE,158,3.8,9.2,13,0.00,,,0.00,WUHU216HW,2013-04-29 20:42:00,
2013-04-29 14:47:00,74.9,23.0,29.79,NW,315,3.6,9.2,15,0.00,,,0.00,WUHU216HW,2013-04-29 20:47:00,
2013-04-29 14:52:00,74.9,24.6,29.79,NE,45,1.8,3.6,16,0.00,,,0.00,WUHU216HW,2013-04-29 20:52:00,
2013-04-29 14:57:00,74.7,22.9,29.79,WSW,248,1.1,5.4,15,0.00,,,0.00,WUHU216HW,2013-04-29 20:57:00,
2013-04-29 15:02:00,75.4,23.4,29.78,ESE,113,1.3,5.8,15,0.00,,,0.00,WUHU216HW,2013-04-29 21:02:00,
2013-04-29 15:07:00,76.1,23.9,29.78,West,270,0.4,5.8,15,0.00,,,0.00,WUHU216HW,2013-04-29 21:07:00,
2013-04-29 15:12:00,76.1,25.6,29.77,South,180,2.2,4.9,16,0.00,,,0.00,WUHU216HW,2013-04-29 21:12:00,
2013-04-29 15:17:00,76.5,24.2,29.77,SE,135,6.3,6.3,15,0.00,,,0.00,WUHU216HW,2013-04-29 21:17:00,
2013-04-29 15:22:00,76.3,25.7,29.77,WNW,293,1.8,6.3,16,0.00,,,0.00,WUHU216HW,2013-04-29 21:22:00,
2013-04-29 15:27:00,76.0,23.8,29.77,NW,315,1.1,5.6,15,0.00,,,0.00,WUHU216HW,2013-04-29 21:27:00,
2013-04-29 15:32:00,76.0,23.8,29.77,WNW,293,1.1,4.9,15,0.00,,,0.00,WUHU216HW,2013-04-29 21:32:00,
2013-04-29 15:37:00,76.0,23.8,29.77,WSW,248,4.7,4.9,15,0.00,,,0.00,WUHU216HW,2013-04-29 21:37:00,
2013-04-29 15:42:00,76.3,24.1,29.77,ESE,113,1.1,4.7,15,0.00,,,0.00,WUHU216HW,2013-04-29 21:42:00,
2013-04-29 15:47:00,76.1,23.9,29.76,East,90,1.8,4.3,15,0.00,,,0.00,WUHU216HW,2013-04-29 21:47:00,
2013-04-29 15:52:00,76.3,24.1,29.76,NW,315,0.9,4.3,15,0.00,,,0.00,WUHU216HW,2013-04-29 21:52:00,
2013-04-29 15:57:00,76.0,20.5,29.76,SE,135,1.8,6.7,13,0.00,,,0.00,WUHU216HW,2013-04-29 21:57:00,
2013-04-29 16:02:00,76.1,20.6,29.77,West,270,3.4,6.7,13,0.00,,,0.00,WUHU216HW,2013-04-29 22:02:00,
2013-04-29 16:07:00,76.0,23.8,29.76,ESE,113,2.9,6.7,15,0.00,,,0.00,WUHU216HW,2013-04-29 22:07:00,
2013-04-29 16:12:00,76.0,23.8,29.76,SW,225,1.6,6.0,15,0.00,,,0.00,WUHU216HW,2013-04-29 22:12:00,
2013-04-29 16:17:00,76.3,24.1,29.76,North,0,1.1,6.0,15,0.00,,,0.00,WUHU216HW,2013-04-29 22:17:00,
2013-04-29 16:22:00,76.7,24.4,29.76,SSE,158,2.5,5.8,15,0.00,,,0.00,WUHU216HW,2013-04-29 22:22:00,
2013-04-29 16:27:00,76.9,24.5,29.76,SSW,203,0.4,5.8,15,0.00,,,0.00,WUHU216HW,2013-04-29 22:27:00,
2013-04-29 16:32:00,77.0,24.7,29.75,ENE,68,1.3,4.5,15,0.00,,,0.00,WUHU216HW,2013-04-29 22:32:00,
2013-04-29 16:37:00,76.7,21.1,29.75,SSE,158,1.3,4.5,13,0.00,,,0.00,WUHU216HW,2013-04-29 22:37:00,
2013-04-29 16:42:00,76.3,20.8,29.75,WSW,248,4.5,4.5,13,0.00,,,0.00,WUHU216HW,2013-04-29 22:42:00,
2013-04-29 16:47:00,76.1,20.6,29.75,South,180,4.5,4.5,13,0.00,,,0.00,WUHU216HW,2013-04-29 22:47:00,
2013-04-29 16:52:00,76.0,23.8,29.74,ESE,113,0.9,4.5,15,0.00,,,0.00,WUHU216HW,2013-04-29 22:52:00,
2013-04-29 16:57:00,75.8,23.7,29.74,SE,135,5.8,5.8,15,0.00,,,0.00,WUHU216HW,2013-04-29 22:57:00,
2013-04-29 17:02:00,75.6,23.5,29.74,NW,315,0.4,5.8,15,0.00,,,0.00,WUHU216HW,2013-04-29 23:02:00,
2013-04-29 17:07:00,75.6,25.2,29.74,SE,135,2.2,2.5,16,0.00,,,0.00,WUHU216HW,2013-04-29 23:07:00,
2013-04-29 17:12:00,75.6,25.2,29.74,South,180,1.8,2.2,16,0.00,,,0.00,WUHU216HW,2013-04-29 23:12:00,
2013-04-29 17:17:00,75.1,23.1,29.74,SSW,203,1.8,3.4,15,0.00,,,0.00,WUHU216HW,2013-04-29 23:17:00,
2013-04-29 17:22:00,74.9,24.6,29.73,SSW,203,3.1,6.5,16,0.00,,,0.00,WUHU216HW,2013-04-29 23:22:00,
2013-04-29 17:27:00,75.1,24.8,29.73,South,180,6.0,6.5,16,0.00,,,0.00,WUHU216HW,2013-04-29 23:27:00,
2013-04-29 17:32:00,74.9,24.6,29.73,ESE,113,1.6,7.6,16,0.00,,,0.00,WUHU216HW,2013-04-29 23:32:00,
2013-04-29 17:37:00,74.7,24.5,29.73,SSE,158,0.9,7.6,16,0.00,,,0.00,WUHU216HW,2013-04-29 23:37:00,
2013-04-29 17:42:00,74.9,26.3,29.73,SW,225,0.7,1.8,17,0.00,,,0.00,WUHU216HW,2013-04-29 23:42:00,
2013-04-29 17:47:00,74.9,24.6,29.73,East,90,1.1,3.1,16,0.00,,,0.00,WUHU216HW,2013-04-29 23:47:00,
2013-04-29 17:52:00,74.9,24.6,29.73,WSW,248,4.7,4.7,16,0.00,,,0.00,WUHU216HW,2013-04-29 23:52:00,
2013-04-29 17:57:00,74.9,24.6,29.73,SE,135,1.6,4.7,16,0.00,,,0.00,WUHU216HW,2013-04-29 23:57:00,
2013-04-29 18:02:00,74.5,24.3,29.73,South,180,3.4,3.4,16,0.00,,,0.00,WUHU216HW,2013-04-30 00:02:00,
2013-04-29 18:07:00,74.5,24.3,29.73,SSE,158,0.7,4.0,16,0.00,,,0.00,WUHU216HW,2013-04-30 00:07:00,
2013-04-29 18:12:00,74.3,24.2,29.73,NNW,338,0.7,4.0,16,0.00,,,0.00,WUHU216HW,2013-04-30 00:12:00,
2013-04-29 18:17:00,74.2,25.8,29.73,SE,135,2.2,3.4,17,0.00,,,0.00,WUHU216HW,2013-04-30 00:17:00,
2013-04-29 18:22:00,73.8,25.4,29.73,ENE,68,1.1,3.4,17,0.00,,,0.00,WUHU216HW,2013-04-30 00:22:00,
2013-04-29 18:27:00,73.8,23.8,29.73,NW,315,1.8,3.4,16,0.00,,,0.00,WUHU216HW,2013-04-30 00:27:00,
2013-04-29 18:32:00,73.4,25.1,29.72,ESE,113,4.3,4.3,17,0.00,,,0.00,WUHU216HW,2013-04-30 00:32:00,
2013-04-29 18:37:00,73.3,25.0,29.72,SSE,158,0.4,4.3,17,0.00,,,0.00,WUHU216HW,2013-04-30 00:37:00,
2013-04-29 18:42:00,73.1,26.5,29.73,West,270,3.1,3.1,18,0.00,,,0.00,WUHU216HW,2013-04-30 00:42:00,
2013-04-29 18:47:00,72.5,24.4,29.73,West,270,0.4,4.5,17,0.00,,,0.00,WUHU216HW,2013-04-30 00:47:00,
2013-04-29 18:52:00,72.4,24.2,29.72,ENE,68,2.0,4.5,17,0.00,,,0.00,WUHU216HW,2013-04-30 00:52:00,
2013-04-29 18:57:00,72.0,22.2,29.72,SW,225,3.4,3.8,16,0.00,,,0.00,WUHU216HW,2013-04-30 00:57:00,
2013-04-29 19:02:00,71.6,23.6,29.73,West,270,2.0,3.8,17,0.00,,,0.00,WUHU216HW,2013-04-30 01:02:00,
2013-04-29 19:07:00,71.3,21.7,29.73,WSW,248,0.4,3.1,16,0.00,,,0.00,WUHU216HW,2013-04-30 01:07:00,
2013-04-29 19:12:00,70.9,23.1,29.73,WSW,248,0.0,2.5,17,0.00,,,0.00,WUHU216HW,2013-04-30 01:12:00,
2013-04-29 19:17:00,70.2,22.4,29.73,West,270,0.4,1.1,17,0.00,,,0.00,WUHU216HW,2013-04-30 01:17:00,
2013-04-29 19:22:00,69.8,20.5,29.73,West,270,3.4,3.4,16,0.00,,,0.00,WUHU216HW,2013-04-30 01:22:00,
2013-04-29 19:27:00,69.5,20.3,29.73,SW,225,1.1,5.4,16,0.00,,,0.00,WUHU216HW,2013-04-30 01:27:00,
2013-04-29 19:32:00,69.3,20.1,29.73,SW,225,0.9,5.4,16,0.00,,,0.00,WUHU216HW,2013-04-30 01:32:00,
2013-04-29 19:37:00,68.8,19.7,29.73,SE,135,1.1,2.5,16,0.00,,,0.00,WUHU216HW,2013-04-30 01:37:00,
2013-04-29 19:42:00,68.0,20.8,29.73,WSW,248,1.1,2.5,17,0.00,,,0.00,WUHU216HW,2013-04-30 01:42:00,
2013-04-29 19:47:00,67.1,21.6,29.72,SSW,203,5.6,5.6,18,0.00,,,0.00,WUHU216HW,2013-04-30 01:47:00,
2013-04-29 19:52:00,66.4,21.0,29.73,South,180,2.0,5.6,18,0.00,,,0.00,WUHU216HW,2013-04-30 01:52:00,
2013-04-29 19:57:00,66.2,20.8,29.73,SSE,158,0.0,4.0,18,0.00,,,0.00,WUHU216HW,2013-04-30 01:57:00,
2013-04-29 20:02:00,65.7,20.3,29.72,SSW,203,0.7,2.2,18,0.00,,,0.00,WUHU216HW,2013-04-30 02:02:00,
2013-04-29 20:07:00,65.2,19.9,29.72,WSW,248,0.7,2.2,18,0.00,,,0.00,WUHU216HW,2013-04-30 02:07:00,
2013-04-29 20:12:00,64.8,21.3,29.72,WSW,248,3.4,3.4,19,0.00,,,0.00,WUHU216HW,2013-04-30 02:12:00,
2013-04-29 20:17:00,64.8,21.3,29.73,WSW,248,3.4,4.7,19,0.00,,,0.00,WUHU216HW,2013-04-30 02:17:00,
2013-04-29 20:22:00,65.2,21.5,29.73,WSW,248,0.4,4.7,19,0.00,,,0.00,WUHU216HW,2013-04-30 02:22:00,
2013-04-29 20:27:00,65.2,21.5,29.72,SE,135,2.2,4.5,19,0.00,,,0.00,WUHU216HW,2013-04-30 02:27:00,
2013-04-29 20:32:00,65.5,21.8,29.73,WSW,248,3.8,5.4,19,0.00,,,0.00,WUHU216HW,2013-04-30 02:32:00,
2013-04-29 20:37:00,65.5,21.8,29.73,SW,225,2.0,5.4,19,0.00,,,0.00,WUHU216HW,2013-04-30 02:37:00,
2013-04-29 20:42:00,65.2,21.5,29.73,West,270,2.2,4.7,19,0.00,,,0.00,WUHU216HW,2013-04-30 02:42:00,
2013-04-29 20:47:00,64.8,21.3,29.74,SE,135,1.1,3.6,19,0.00,,,0.00,WUHU216HW,2013-04-30 02:47:00,
2013-04-29 20:52:00,64.6,22.7,29.74,NNW,338,1.3,2.9,20,0.00,,,0.00,WUHU216HW,2013-04-30 02:52:00,
2013-04-29 20:57:00,64.6,23.7,29.74,SSE,158,1.6,4.7,21,0.00,,,0.00,WUHU216HW,2013-04-30 02:57:00,
2013-04-29 21:02:00,64.6,23.7,29.74,WSW,248,2.5,4.7,21,0.00,,,0.00,WUHU216HW,2013-04-30 03:02:00,
2013-04-29 21:07:00,64.4,23.5,29.74,West,270,1.8,4.0,21,0.00,,,0.00,WUHU216HW,2013-04-30 03:07:00,
2013-04-29 21:12:00,64.3,23.3,29.74,SE,135,0.2,3.8,21,0.00,,,0.00,WUHU216HW,2013-04-30 03:12:00,
2013-04-29 21:17:00,64.1,24.2,29.74,ESE,113,5.4,5.4,22,0.00,,,0.00,WUHU216HW,2013-04-30 03:17:00,
2013-04-29 21:22:00,64.3,24.3,29.74,SE,135,4.0,5.4,22,0.00,,,0.00,WUHU216HW,2013-04-30 03:22:00,
2013-04-29 21:27:00,64.4,23.5,29.74,SE,135,1.1,4.7,21,0.00,,,0.00,WUHU216HW,2013-04-30 03:27:00,
2013-04-29 21:32:00,64.4,24.5,29.74,WSW,248,2.0,4.9,22,0.00,,,0.00,WUHU216HW,2013-04-30 03:32:00,
2013-04-29 21:37:00,64.4,24.5,29.74,South,180,6.5,6.5,22,0.00,,,0.00,WUHU216HW,2013-04-30 03:37:00,
2013-04-29 21:42:00,64.6,24.7,29.74,West,270,2.2,6.5,22,0.00,,,0.00,WUHU216HW,2013-04-30 03:42:00,
2013-04-29 21:47:00,64.4,24.5,29.74,SSE,158,1.3,2.7,22,0.00,,,0.00,WUHU216HW,2013-04-30 03:47:00,
2013-04-29 21:52:00,64.4,24.5,29.74,West,270,2.5,3.4,22,0.00,,,0.00,WUHU216HW,2013-04-30 03:52:00,
2013-04-29 21:57:00,64.4,24.5,29.74,SSW,203,2.0,4.3,22,0.00,,,0.00,WUHU216HW,2013-04-30 03:57:00,
2013-04-29 22:01:00,64.3,24.3,29.75,SSW,203,1.1,4.3,22,0.00,,,0.00,WUHU216HW,2013-04-30 04:01:00,
2013-04-29 22:06:00,63.7,23.9,29.74,SW,225,0.9,3.6,22,0.00,,,0.00,WUHU216HW,2013-04-30 04:06:00,
2013-04-29 22:11:00,63.2,23.5,29.74,SSW,203,0.0,1.6,22,0.00,,,0.00,WUHU216HW,2013-04-30 04:11:00,
2013-04-29 22:16:00,62.5,23.9,29.74,WSW,248,1.1,1.6,23,0.00,,,0.00,WUHU216HW,2013-04-30 04:16:00,
2013-04-29 22:21:00,61.7,22.2,29.74,WSW,248,0.0,1.6,22,0.00,,,0.00,WUHU216HW,2013-04-30 04:21:00,
2013-04-29 22:26:00,61.2,21.8,29.74,WSW,248,0.4,1.3,22,0.00,,,0.00,WUHU216HW,2013-04-30 04:26:00,
2013-04-29 22:31:00,60.7,22.3,29.74,WSW,248,0.0,1.1,23,0.00,,,0.00,WUHU216HW,2013-04-30 04:31:00,
2013-04-29 22:36:00,60.1,22.9,29.74,West,270,1.8,1.8,24,0.00,,,0.00,WUHU216HW,2013-04-30 04:36:00,
2013-04-29 22:41:00,59.4,23.1,29.74,WNW,293,2.5,2.5,25,0.00,,,0.00,WUHU216HW,2013-04-30 04:41:00,
2013-04-29 22:46:00,59.0,22.9,29.74,WSW,248,1.1,2.5,25,0.00,,,0.00,WUHU216HW,2013-04-30 04:46:00,
2013-04-29 22:51:00,58.7,22.6,29.74,NNE,23,0.7,1.8,25,0.00,,,0.00,WUHU216HW,2013-04-30 04:51:00,
2013-04-29 22:56:00,58.3,22.2,29.74,West,270,1.1,1.3,25,0.00,,,0.00,WUHU216HW,2013-04-30 04:56:00,
2013-04-29 23:01:00,58.1,23.0,29.74,South,180,2.7,2.7,26,0.00,,,0.00,WUHU216HW,2013-04-30 05:01:00,
2013-04-29 23:06:00,58.0,22.9,29.74,SW,225,0.4,2.7,26,0.00,,,0.00,WUHU216HW,2013-04-30 05:06:00,
2013-04-29 23:11:00,57.8,22.8,29.74,South,180,1.6,2.2,26,0.00,,,0.00,WUHU216HW,2013-04-30 05:11:00,
2013-04-29 23:16:00,57.8,23.7,29.74,WSW,248,0.9,3.1,27,0.00,,,0.00,WUHU216HW,2013-04-30 05:16:00,
2013-04-29 23:21:00,57.6,24.5,29.74,West,270,0.9,3.1,28,0.00,,,0.00,WUHU216HW,2013-04-30 05:21:00,
2013-04-29 23:26:00,57.6,24.5,29.74,SW,225,1.1,2.5,28,0.00,,,0.00,WUHU216HW,2013-04-30 05:26:00,
2013-04-29 23:31:00,57.2,24.2,29.74,WSW,248,0.0,2.0,28,0.00,,,0.00,WUHU216HW,2013-04-30 05:31:00,
2013-04-29 23:36:00,57.1,24.0,29.74,WSW,248,0.4,2.0,28,0.00,,,0.00,WUHU216HW,2013-04-30 05:36:00,
2013-04-29 23:41:00,56.7,23.8,29.74,SW,225,0.0,1.1,28,0.00,,,0.00,WUHU216HW,2013-04-30 05:41:00,
2013-04-29 23:46:00,56.5,23.6,29.74,SSE,158,1.8,1.8,28,0.00,,,0.00,WUHU216HW,2013-04-30 05:46:00,
2013-04-29 23:51:00,56.5,23.6,29.74,WSW,248,2.5,2.5,28,0.00,,,0.00,WUHU216HW,2013-04-30 05:51:00,
2013-04-29 23:56:00,56.5,24.5,29.74,WSW,248,2.7,2.7,29,0.00,,,0.00,WUHU216HW,2013-04-30 05:56:00,